Terminal Aerodrome Forecast
Issued by NWS

Current Version | Previous Version | Text Only | Print | Product List | Glossary On
Versions: 1 2 3 4 5 6 7 8 9 10 11 12 13 14 15 16 17 18 19 20 21 22 23 24 25
635
FTUS41 KPBZ 031720
TAFDUJ
TAF
KDUJ 031720Z 0318/0418 27008KT P6SM OVC007
     FM032100 26006KT P6SM OVC012
     FM040400 26005KT P6SM BKN008
     FM041400 07002KT P6SM OVC015=

USA.gov is the U.S. government's official web portal to all federal, state and local government web resources and services.